createdAt,value
2023-03-20T00:02:02.875Z,99667.94
2023-03-20T00:04:31.704Z,99672.88
2023-03-20T00:07:00.293Z,99680.44
2023-03-20T00:09:28.693Z,99682.94
2023-03-20T00:11:57.918Z,99673.63
2023-03-20T00:14:27.497Z,99668.59
2023-03-20T00:16:57.379Z,99671.16
2023-03-20T00:19:26.460Z,99665.34
2023-03-20T00:21:56.287Z,99669.63
2023-03-20T00:24:24.884Z,99674.59
2023-03-20T00:26:54.295Z,99669.53
2023-03-20T00:29:24.330Z,99661.03
2023-03-20T00:31:53.318Z,99661.88
2023-03-20T00:34:24.483Z,99665.22
2023-03-20T00:36:53.055Z,99655.97
2023-03-20T00:39:21.505Z,99658.50
2023-03-20T00:41:51.731Z,99659.28
2023-03-20T00:44:22.228Z,99661.81
2023-03-20T00:46:52.291Z,99653.34
2023-03-20T00:49:24.021Z,99655.06
2023-03-20T00:51:52.995Z,99655.81
2023-03-20T00:54:21.652Z,99648.13
2023-03-20T00:56:54.452Z,99647.28
2023-03-20T00:59:24.085Z,99651.41
2023-03-20T01:01:52.745Z,99646.22
2023-03-20T01:04:22.853Z,99644.38
2023-03-20T01:06:52.839Z,99647.63
2023-03-20T01:09:21.325Z,99647.53
2023-03-20T01:11:49.916Z,99639.75
2023-03-20T01:14:19.123Z,99647.34
2023-03-20T01:16:47.879Z,99642.28
2023-03-20T01:19:17.872Z,99645.66
2023-03-20T01:21:47.725Z,99646.53
2023-03-20T01:24:16.220Z,99646.59
2023-03-20T01:26:45.452Z,99645.66
2023-03-20T01:29:19.109Z,99643.94
2023-03-20T01:31:47.896Z,99641.44
2023-03-20T01:34:17.989Z,99645.59
2023-03-20T01:36:49.982Z,99648.94
2023-03-20T01:39:19.310Z,99644.56
2023-03-20T01:41:48.432Z,99653.66
2023-03-20T01:44:20.704Z,99653.66
2023-03-20T01:46:49.816Z,99651.13
2023-03-20T01:49:31.901Z,99652.78
2023-03-20T01:52:05.974Z,99655.28
2023-03-20T01:54:35.986Z,99656.09
2023-03-20T01:57:11.064Z,99659.44
2023-03-20T01:59:43.288Z,99659.41
2023-03-20T02:02:15.262Z,99655.16
2023-03-20T02:04:47.848Z,99660.31
2023-03-20T02:07:21.802Z,99661.88
2023-03-20T02:10:02.731Z,99660.13
2023-03-20T02:12:42.669Z,99658.38
2023-03-20T02:15:15.848Z,99663.28
2023-03-20T02:17:56.540Z,99658.16
2023-03-20T02:20:32.954Z,99661.59
2023-03-20T02:23:19.405Z,99654.94
2023-03-20T02:26:02.454Z,99662.47
2023-03-20T02:28:44.233Z,99667.53
2023-03-20T02:31:27.883Z,99659.16
2023-03-20T02:34:10.254Z,99657.34
2023-03-20T02:36:49.513Z,99663.19
2023-03-20T02:39:26.437Z,99656.28
2023-03-20T02:41:58.742Z,99657.88
2023-03-20T02:44:31.663Z,99655.28
2023-03-20T02:47:05.415Z,99654.44
2023-03-20T02:49:45.535Z,99655.19
2023-03-20T02:52:18.572Z,99652.59
2023-03-20T02:54:55.025Z,99656.84
2023-03-20T02:57:28.630Z,99651.78
2023-03-20T02:59:59.862Z,99649.41
2023-03-20T03:02:33.154Z,99650.91
2023-03-20T03:05:05.181Z,99647.41
2023-03-20T03:07:34.835Z,99652.34
2023-03-20T03:10:07.022Z,99652.22
2023-03-20T03:12:37.998Z,99647.84
2023-03-20T03:15:09.115Z,99645.22
2023-03-20T03:17:39.735Z,99645.31
2023-03-20T03:20:11.242Z,99647.94
2023-03-20T03:22:39.724Z,99643.84
2023-03-20T03:25:12.295Z,99639.72
2023-03-20T03:27:42.906Z,99646.47
2023-03-20T03:30:14.942Z,99644.78
2023-03-20T03:32:47.487Z,99650.75
2023-03-20T03:35:18.025Z,99644.09
2023-03-20T03:37:51.623Z,99645.66
2023-03-20T03:40:26.153Z,99647.28
2023-03-20T03:42:57.123Z,99659.25
2023-03-20T03:45:30.762Z,99653.44
2023-03-20T03:48:03.724Z,99652.66
2023-03-20T03:50:36.560Z,99652.66
2023-03-20T03:53:08.495Z,99655.09
2023-03-20T03:55:40.975Z,99653.41
2023-03-20T03:58:15.147Z,99658.56
2023-03-20T04:00:46.422Z,99664.50
2023-03-20T04:03:15.242Z,99667.75
2023-03-20T04:05:45.142Z,99664.13
2023-03-20T04:08:13.589Z,99662.47
2023-03-20T04:10:44.689Z,99675.19
2023-03-20T04:13:13.195Z,99681.16
2023-03-20T04:15:41.922Z,99676.97
2023-03-20T04:18:16.973Z,99674.53
2023-03-20T04:20:47.044Z,99669.47
2023-03-20T04:23:15.411Z,99668.66
2023-03-20T04:25:46.211Z,99670.28
2023-03-20T04:28:16.696Z,99676.25
2023-03-20T04:30:55.471Z,99667.81
2023-03-20T04:33:35.050Z,99665.28
2023-03-20T04:36:15.172Z,99667.56
2023-03-20T04:38:43.756Z,99668.91
2023-03-20T04:41:13.658Z,99663.81
2023-03-20T04:43:42.602Z,99665.44
2023-03-20T04:46:11.126Z,99662.78
2023-03-20T04:48:39.710Z,99666.97
2023-03-20T04:51:08.468Z,99670.41
2023-03-20T04:53:48.062Z,99667.13
2023-03-20T04:56:18.170Z,99675.56
2023-03-20T04:58:48.110Z,99677.97
2023-03-20T05:01:18.095Z,99683.00
2023-03-20T05:03:46.834Z,99680.41
2023-03-20T05:06:15.324Z,99681.22
2023-03-20T05:08:45.786Z,99682.84
2023-03-20T05:11:14.379Z,99683.44
2023-03-20T05:13:50.175Z,99681.69
2023-03-20T05:16:38.886Z,99692.66
2023-03-20T05:19:27.613Z,99687.63
2023-03-20T05:22:07.323Z,99687.69
2023-03-20T05:24:46.000Z,99690.59
2023-03-20T05:27:37.630Z,99694.13
2023-03-20T05:30:20.002Z,99697.63
2023-03-20T05:32:59.471Z,99711.22
2023-03-20T05:35:28.124Z,99707.91
2023-03-20T05:38:11.527Z,99713.94
2023-03-20T05:40:51.345Z,99716.47
2023-03-20T05:43:26.039Z,99723.25
2023-03-20T05:46:04.289Z,99720.84
2023-03-20T05:48:53.213Z,99730.16
2023-03-20T05:51:44.700Z,99730.25
2023-03-20T05:54:29.168Z,99734.44
2023-03-20T05:57:08.101Z,99732.19
2023-03-20T05:59:57.052Z,99737.59
2023-03-20T06:02:38.190Z,99735.25
2023-03-20T06:05:22.645Z,99737.84
2023-03-20T06:07:53.607Z,99738.13
2023-03-20T06:10:22.521Z,99734.06
2023-03-20T06:12:52.700Z,99748.66
2023-03-20T06:15:26.316Z,99750.41
2023-03-20T06:18:02.851Z,99747.22
2023-03-20T06:20:31.798Z,99743.03
2023-03-20T06:23:04.461Z,99745.88
2023-03-20T06:25:32.941Z,99744.34
2023-03-20T06:28:01.450Z,99745.28
2023-03-20T06:30:30.672Z,99754.69
2023-03-20T06:32:59.956Z,99743.91
2023-03-20T06:35:39.273Z,99753.19
2023-03-20T06:38:08.589Z,99751.59
2023-03-20T06:40:37.254Z,99758.38
2023-03-20T06:43:06.071Z,99758.59
2023-03-20T06:45:44.331Z,99757.81
2023-03-20T06:48:22.413Z,99754.63
2023-03-20T06:50:53.963Z,99759.03
2023-03-20T06:53:26.214Z,99757.41
2023-03-20T06:56:03.247Z,99754.06
2023-03-20T06:58:31.653Z,99759.31
2023-03-20T07:01:00.111Z,99757.72
2023-03-20T07:03:28.785Z,99751.03
2023-03-20T07:06:01.180Z,99752.78
2023-03-20T07:08:29.797Z,99745.28
2023-03-20T07:10:58.843Z,99741.19
2023-03-20T07:13:28.429Z,99738.81
2023-03-20T07:16:04.614Z,99743.28
2023-03-20T07:18:42.058Z,99743.38
2023-03-20T07:21:17.233Z,99750.38
2023-03-20T07:23:45.801Z,99748.94
2023-03-20T07:26:14.312Z,99744.88
2023-03-20T07:28:42.782Z,99749.19
2023-03-20T07:31:21.329Z,99757.00
2023-03-20T07:33:53.834Z,99740.97
2023-03-20T07:36:23.882Z,99748.75
2023-03-20T07:38:52.337Z,99751.34
2023-03-20T07:41:21.187Z,99746.31
2023-03-20T07:44:00.860Z,99753.22
2023-03-20T07:46:49.659Z,99752.50
2023-03-20T07:49:19.079Z,99750.91
2023-03-20T07:51:49.770Z,99750.22
2023-03-20T07:54:18.604Z,99743.50
2023-03-20T07:56:47.080Z,99745.25
2023-03-20T07:59:16.054Z,99747.84
2023-03-20T08:01:44.497Z,99742.78
2023-03-20T08:04:13.238Z,99745.28
2023-03-20T08:06:41.734Z,99750.41
2023-03-20T08:09:11.774Z,99756.34
2023-03-20T08:11:40.120Z,99746.09
2023-03-20T08:14:08.678Z,99741.78
2023-03-20T08:16:37.162Z,99751.91
2023-03-20T08:19:06.420Z,99748.47
2023-03-20T08:21:35.122Z,99743.28
2023-03-20T08:24:03.432Z,99748.34
2023-03-20T08:26:33.312Z,99747.41
2023-03-20T08:29:02.063Z,99744.81
2023-03-20T08:31:30.411Z,99745.69
2023-03-20T08:33:58.850Z,99737.97
2023-03-20T08:36:27.214Z,99733.69
2023-03-20T08:38:56.209Z,99736.22
2023-03-20T08:41:24.539Z,99740.47
2023-03-20T08:43:54.446Z,99744.63
2023-03-20T08:46:22.884Z,99746.94
2023-03-20T08:48:51.347Z,99746.72
2023-03-20T08:51:20.328Z,99738.91
2023-03-20T08:53:48.793Z,99745.63
2023-03-20T08:56:17.352Z,99742.09
2023-03-20T08:58:46.138Z,99744.66
2023-03-20T09:01:16.723Z,99743.63
2023-03-20T09:03:45.601Z,99740.03
2023-03-20T09:06:13.978Z,99739.03
2023-03-20T09:08:42.475Z,99739.75
2023-03-20T09:11:10.900Z,99739.63
2023-03-20T09:13:39.513Z,99732.59
2023-03-20T09:16:08.301Z,99735.81
2023-03-20T09:18:38.421Z,99730.56
2023-03-20T09:21:07.074Z,99730.38
2023-03-20T09:23:35.526Z,99729.13
2023-03-20T09:26:03.831Z,99733.31
2023-03-20T09:28:32.683Z,99733.97
2023-03-20T09:31:02.294Z,99733.19
2023-03-20T09:33:30.692Z,99731.56
2023-03-20T09:36:01.243Z,99727.75
2023-03-20T09:38:29.609Z,99728.44
2023-03-20T09:40:58.685Z,99724.25
2023-03-20T09:43:35.255Z,99718.31
2023-03-20T09:46:08.658Z,99718.88
2023-03-20T09:48:40.217Z,99727.16
2023-03-20T09:51:14.732Z,99719.19
2023-03-20T09:53:45.295Z,99715.44
2023-03-20T09:56:16.444Z,99716.25
2023-03-20T09:58:49.767Z,99709.44
2023-03-20T10:01:19.471Z,99713.50
2023-03-20T10:03:52.037Z,99697.16
2023-03-20T10:06:22.005Z,99701.97
2023-03-20T10:08:50.365Z,99696.41
2023-03-20T10:11:26.177Z,99696.00
2023-03-20T10:14:02.199Z,99698.19
2023-03-20T10:16:41.592Z,99685.63
2023-03-20T10:19:14.615Z,99688.28
2023-03-20T10:21:46.896Z,99677.09
2023-03-20T10:24:21.389Z,99681.94
2023-03-20T10:26:52.260Z,99680.25
2023-03-20T10:29:27.066Z,99674.72
2023-03-20T10:31:59.242Z,99684.88
2023-03-20T10:34:36.653Z,99680.25
2023-03-20T10:37:11.699Z,99665.03
2023-03-20T10:39:50.613Z,99668.41
2023-03-20T10:42:22.997Z,99664.66
2023-03-20T10:44:53.430Z,99670.19
2023-03-20T10:47:24.312Z,99659.94
2023-03-20T10:49:55.970Z,99661.44
2023-03-20T10:52:27.877Z,99668.13
2023-03-20T10:54:58.415Z,99652.53
2023-03-20T10:57:27.838Z,99650.16
2023-03-20T10:59:57.654Z,99653.28
2023-03-20T11:02:27.585Z,99647.31
2023-03-20T11:04:56.060Z,99647.44
2023-03-20T11:07:28.543Z,99655.81
2023-03-20T11:10:08.167Z,99651.31
2023-03-20T11:12:37.842Z,99652.59
2023-03-20T11:15:15.993Z,99652.09
2023-03-20T11:17:44.551Z,99646.94
2023-03-20T11:20:15.627Z,99646.78
2023-03-20T11:22:45.500Z,99640.22
2023-03-20T11:25:24.179Z,99637.09
2023-03-20T11:27:52.883Z,99629.09
2023-03-20T11:30:21.212Z,99630.09
2023-03-20T11:32:51.284Z,99624.63
2023-03-20T11:35:24.293Z,99622.25
2023-03-20T11:37:55.183Z,99617.56
2023-03-20T11:40:25.644Z,99612.53
2023-03-20T11:42:55.011Z,99610.44
2023-03-20T11:45:23.688Z,99605.63
2023-03-20T11:47:53.051Z,99594.66
2023-03-20T11:50:31.479Z,99596.63
2023-03-20T11:53:03.072Z,99595.59
2023-03-20T11:55:33.010Z,99588.41
2023-03-20T11:58:02.339Z,99588.19
2023-03-20T12:00:36.769Z,99584.00
2023-03-20T12:03:11.455Z,99590.53
2023-03-20T12:05:41.121Z,99583.13
2023-03-20T12:08:16.135Z,99584.81
2023-03-20T12:10:47.645Z,99580.06
2023-03-20T12:13:18.433Z,99579.81
2023-03-20T12:15:48.860Z,99577.47
2023-03-20T12:18:19.162Z,99573.09
2023-03-20T12:20:52.744Z,99565.44
2023-03-20T12:23:30.238Z,99570.16
2023-03-20T12:26:01.257Z,99571.19
2023-03-20T12:28:34.453Z,99569.16
2023-03-20T12:31:07.515Z,99574.56
2023-03-20T12:33:45.867Z,99575.28
2023-03-20T12:36:15.665Z,99565.88
2023-03-20T12:38:46.146Z,99572.22
2023-03-20T12:41:16.967Z,99571.03
2023-03-20T12:43:54.676Z,99569.78
2023-03-20T12:46:27.001Z,99562.78
2023-03-20T12:49:01.344Z,99563.00
2023-03-20T12:51:36.905Z,99561.19
2023-03-20T12:54:13.878Z,99557.34
2023-03-20T12:56:54.828Z,99548.31
2023-03-20T12:59:28.604Z,99552.06
2023-03-20T13:02:00.066Z,99553.38
2023-03-20T13:04:41.130Z,99551.56
2023-03-20T13:07:16.483Z,99552.00
2023-03-20T13:09:57.390Z,99551.22
2023-03-20T13:12:34.272Z,99553.81
2023-03-20T13:15:08.858Z,99550.94
2023-03-20T13:17:39.851Z,99543.50
2023-03-20T13:20:18.487Z,99543.91
2023-03-20T13:22:54.027Z,99548.00
2023-03-20T13:25:30.922Z,99547.91
2023-03-20T13:28:06.977Z,99538.69
2023-03-20T13:30:39.961Z,99535.50
2023-03-20T13:33:15.743Z,99533.53
2023-03-20T13:35:51.181Z,99525.28
2023-03-20T13:38:21.885Z,99528.06
2023-03-20T13:40:54.650Z,99522.97
2023-03-20T13:43:29.043Z,99524.63
2023-03-20T13:46:00.482Z,99524.53
2023-03-20T13:48:31.290Z,99522.72
2023-03-20T13:51:07.384Z,99524.53
2023-03-20T13:53:41.525Z,99520.75
2023-03-20T13:56:13.754Z,99520.78
2023-03-20T13:58:56.471Z,99533.00
2023-03-20T14:01:27.219Z,99531.84
2023-03-20T14:03:57.068Z,99532.34
2023-03-20T14:06:36.395Z,99532.56
2023-03-20T14:09:26.082Z,99531.28
2023-03-20T14:11:55.162Z,99530.03
2023-03-20T14:14:28.883Z,99530.09
2023-03-20T14:17:02.500Z,99528.88
2023-03-20T14:19:31.741Z,99526.34
2023-03-20T14:22:00.776Z,99523.44
2023-03-20T14:24:30.337Z,99522.69
2023-03-20T14:27:00.661Z,99519.72
2023-03-20T14:29:38.292Z,99516.44
2023-03-20T14:32:22.718Z,99511.88
2023-03-20T14:34:52.194Z,99516.50
2023-03-20T14:37:31.325Z,99514.84
2023-03-20T14:40:04.718Z,99521.09
2023-03-20T14:42:38.750Z,99521.13
2023-03-20T14:45:24.830Z,99516.50
2023-03-20T14:47:58.996Z,99512.00
2023-03-20T14:50:30.942Z,99512.38
2023-03-20T14:53:10.460Z,99514.50
2023-03-20T14:55:49.815Z,99518.88
2023-03-20T14:58:28.096Z,99513.91
2023-03-20T15:00:56.617Z,99521.03
2023-03-20T15:03:26.474Z,99512.50
2023-03-20T15:05:58.166Z,99520.38
2023-03-20T15:08:30.093Z,99515.47
2023-03-20T15:11:01.037Z,99516.44
2023-03-20T15:13:31.471Z,99520.88
2023-03-20T15:16:05.040Z,99517.53
2023-03-20T15:18:38.485Z,99519.47
2023-03-20T15:21:13.188Z,99518.84
2023-03-20T15:23:45.167Z,99517.34
2023-03-20T15:26:15.710Z,99510.69
2023-03-20T15:28:46.437Z,99522.06
2023-03-20T15:31:19.126Z,99526.44
2023-03-20T15:33:49.405Z,99517.00
2023-03-20T15:36:19.383Z,99517.91
2023-03-20T15:38:48.366Z,99524.88
2023-03-20T15:41:26.684Z,99520.72
2023-03-20T15:43:55.343Z,99517.44
2023-03-20T15:46:27.553Z,99517.72
2023-03-20T15:49:00.380Z,99524.09
2023-03-20T15:51:29.565Z,99526.88
2023-03-20T15:53:58.190Z,99524.50
2023-03-20T15:56:27.995Z,99531.53
2023-03-20T15:58:58.039Z,99538.53
2023-03-20T16:01:27.172Z,99534.31
2023-03-20T16:03:59.413Z,99533.56
2023-03-20T16:06:29.544Z,99533.66
2023-03-20T16:08:59.021Z,99532.88
2023-03-20T16:11:36.616Z,99544.16
2023-03-20T16:14:05.490Z,99544.22
2023-03-20T16:16:37.851Z,99546.00
2023-03-20T16:19:06.979Z,99546.03
2023-03-20T16:21:38.488Z,99549.59
2023-03-20T16:24:09.136Z,99548.81
2023-03-20T16:26:38.990Z,99551.47
2023-03-20T16:29:07.866Z,99560.22
2023-03-20T16:31:37.519Z,99554.34
2023-03-20T16:34:07.459Z,99552.81
2023-03-20T16:36:39.074Z,99556.41
2023-03-20T16:39:09.030Z,99556.50
2023-03-20T16:41:38.604Z,99564.34
2023-03-20T16:44:09.614Z,99561.03
2023-03-20T16:46:38.234Z,99562.91
2023-03-20T16:49:38.090Z,99566.41
2023-03-20T16:52:12.393Z,99578.56
2023-03-20T16:54:41.084Z,99574.41
2023-03-20T16:57:11.083Z,99573.69
2023-03-20T16:59:40.604Z,99566.94
2023-03-20T17:02:14.277Z,99580.75
2023-03-20T17:04:42.894Z,99577.44
2023-03-20T17:07:16.271Z,99582.72
2023-03-20T17:09:54.910Z,99582.06
2023-03-20T17:12:25.859Z,99585.56
2023-03-20T17:14:54.521Z,99586.53
2023-03-20T17:17:25.358Z,99584.97
2023-03-20T17:19:54.192Z,99590.31
2023-03-20T17:22:25.629Z,99595.66
2023-03-20T17:24:54.322Z,99588.94
2023-03-20T17:27:22.755Z,99594.28
2023-03-20T17:29:51.252Z,99600.38
2023-03-20T17:32:21.402Z,99602.03
2023-03-20T17:34:49.854Z,99597.72
2023-03-20T17:37:19.974Z,99600.28
2023-03-20T17:39:49.901Z,99597.72
2023-03-20T17:42:19.879Z,99589.13
2023-03-20T17:44:48.586Z,99590.81
2023-03-20T17:47:17.879Z,99596.00
2023-03-20T17:49:46.664Z,99600.31
2023-03-20T17:52:16.509Z,99597.75
2023-03-20T17:54:45.008Z,99601.22
2023-03-20T17:57:19.945Z,99595.34
2023-03-20T17:59:50.175Z,99594.53
2023-03-20T18:02:19.551Z,99605.72
2023-03-20T18:04:48.401Z,99604.13
2023-03-20T18:07:17.789Z,99606.75
2023-03-20T18:09:47.092Z,99604.25
2023-03-20T18:12:18.550Z,99605.16
2023-03-20T18:14:47.341Z,99608.69
2023-03-20T18:17:16.780Z,99599.34
2023-03-20T18:19:45.570Z,99600.25
2023-03-20T18:22:13.950Z,99603.72
2023-03-20T18:24:45.461Z,99602.00
2023-03-20T18:27:14.626Z,99605.56
2023-03-20T18:29:45.655Z,99613.34
2023-03-20T18:32:14.141Z,99605.72
2023-03-20T18:34:42.688Z,99603.31
2023-03-20T18:37:14.144Z,99606.06
2023-03-20T18:39:42.658Z,99598.50
2023-03-20T18:42:10.982Z,99601.13
2023-03-20T18:44:39.416Z,99599.47
2023-03-20T18:47:11.039Z,99606.41
2023-03-20T18:49:39.534Z,99607.38
2023-03-20T18:52:07.919Z,99613.50
2023-03-20T18:54:36.521Z,99609.31
2023-03-20T18:57:05.033Z,99605.06
2023-03-20T18:59:33.510Z,99609.41
2023-03-20T19:02:02.165Z,99603.53
2023-03-20T19:04:32.914Z,99596.84
2023-03-20T19:07:01.306Z,99608.09
2023-03-20T19:09:29.688Z,99607.41
2023-03-20T19:11:58.086Z,99606.63
2023-03-20T19:14:27.247Z,99605.00
2023-03-20T19:16:56.324Z,99610.25
2023-03-20T19:19:24.746Z,99618.06
2023-03-20T19:21:54.731Z,99619.84
2023-03-20T19:24:23.504Z,99623.31
2023-03-20T19:26:57.341Z,99620.81
2023-03-20T19:29:26.096Z,99620.91
2023-03-20T19:31:54.552Z,99630.50
2023-03-20T19:34:57.765Z,99632.22
2023-03-20T19:37:13.567Z,99628.84
2023-03-20T19:39:42.085Z,99620.41
2023-03-20T19:42:40.989Z,99627.31
2023-03-20T19:44:59.134Z,99624.88
2023-03-20T19:47:27.540Z,99625.78
2023-03-20T19:49:55.994Z,99632.69
2023-03-20T19:52:30.631Z,99637.84
2023-03-20T19:55:03.185Z,99626.00
2023-03-20T19:57:32.242Z,99631.97
2023-03-20T20:02:49.759Z,99634.56
2023-03-20T20:05:22.567Z,99640.53
2023-03-20T20:08:24.205Z,99638.00
2023-03-20T20:10:42.076Z,99643.09
2023-03-20T20:13:15.744Z,99638.00
2023-03-20T20:15:44.784Z,99643.09
2023-03-20T20:18:13.420Z,99636.31
2023-03-20T20:21:27.322Z,99638.06
2023-03-20T20:23:32.488Z,99644.91
2023-03-20T20:26:01.115Z,99653.44
2023-03-20T20:28:31.354Z,99655.13
2023-03-20T20:31:00.076Z,99648.34
2023-03-20T20:33:29.123Z,99648.34
2023-03-20T20:36:36.757Z,99641.53
2023-03-20T20:38:51.609Z,99644.94
2023-03-20T20:41:20.925Z,99647.50
2023-03-20T20:44:14.743Z,99644.94
2023-03-20T20:46:37.908Z,99639.81
2023-03-20T20:49:18.462Z,99644.09
2023-03-20T20:51:48.199Z,99640.69
2023-03-20T20:54:18.157Z,99643.22
2023-03-20T20:56:46.586Z,99639.00
2023-03-20T20:59:14.937Z,99645.78
2023-03-20T21:01:43.746Z,99644.97
2023-03-20T21:04:12.633Z,99643.25
2023-03-20T21:07:08.191Z,99644.97
2023-03-20T21:09:31.554Z,99639.88
2023-03-20T21:12:01.030Z,99648.38
2023-03-20T21:14:29.612Z,99650.06
2023-03-20T21:17:01.461Z,99639.84
2023-03-20T21:19:30.565Z,99648.34
2023-03-20T21:21:58.964Z,99651.75
2023-03-20T21:24:33.050Z,99650.06
2023-03-20T21:27:05.294Z,99645.81
2023-03-20T21:29:33.783Z,99639.84
2023-03-20T21:32:02.910Z,99647.50
2023-03-20T21:34:31.589Z,99650.06
2023-03-20T21:37:29.521Z,99649.19
2023-03-20T21:39:51.574Z,99643.25
2023-03-20T21:42:21.587Z,99647.47
2023-03-20T21:56:45.684Z,99639.84
2023-03-20T22:02:10.426Z,99644.94
2023-03-20T22:05:18.940Z,99645.78
2023-03-20T22:08:09.678Z,99648.34
2023-03-20T22:16:43.246Z,99648.34
2023-03-20T22:27:46.551Z,99646.63
2023-03-20T22:33:36.049Z,99645.78
2023-03-20T22:39:05.213Z,99639.81
2023-03-20T22:46:49.539Z,99633.03
2023-03-20T22:49:19.415Z,99637.31
2023-03-20T22:52:08.315Z,99644.94
2023-03-20T22:54:36.582Z,99632.19
2023-03-20T22:57:05.019Z,99633.03
2023-03-20T22:59:33.749Z,99634.78
2023-03-20T23:02:02.161Z,99633.06
2023-03-20T23:04:43.362Z,99634.78
2023-03-20T23:07:22.738Z,99633.91
2023-03-20T23:09:51.429Z,99631.34
2023-03-20T23:12:19.848Z,99631.34
2023-03-20T23:14:48.267Z,99628.81
2023-03-20T23:17:16.819Z,99626.25
2023-03-20T23:19:50.515Z,99625.41
2023-03-20T23:22:22.660Z,99631.31
2023-03-20T23:24:52.133Z,99624.53
2023-03-20T23:27:22.556Z,99626.19
2023-03-20T23:29:51.060Z,99624.53
2023-03-20T23:32:19.608Z,99620.28
2023-03-20T23:34:49.578Z,99625.38
2023-03-20T23:37:18.457Z,99622.81
2023-03-20T23:39:46.977Z,99621.97
2023-03-20T23:42:29.659Z,99617.69
2023-03-20T23:45:07.116Z,99617.69
2023-03-20T23:47:44.773Z,99622.78
2023-03-20T23:50:26.370Z,99621.09
2023-03-20T23:53:09.513Z,99617.72
2023-03-20T23:55:47.011Z,99615.16
2023-03-20T23:58:15.786Z,99610.06
